sensor_id;sensor_type;location;lat;lon;timestamp;P1;durP1;ratioP1;P2;durP2;ratioP2
10479;SDS011;12789;42.610;23.040;2022-08-01T00:02:17;15.85;;;8.82;;
10479;SDS011;12789;42.610;23.040;2022-08-01T00:04:44;11.38;;;9.30;;
10479;SDS011;12789;42.610;23.040;2022-08-01T00:07:11;11.98;;;9.25;;
10479;SDS011;12789;42.610;23.040;2022-08-01T00:09:38;14.32;;;9.88;;
10479;SDS011;12789;42.610;23.040;2022-08-01T00:12:05;14.63;;;10.80;;
10479;SDS011;12789;42.610;23.040;2022-08-01T00:14:43;16.27;;;10.38;;
10479;SDS011;12789;42.610;23.040;2022-08-01T00:17:11;13.55;;;10.65;;
10479;SDS011;12789;42.610;23.040;2022-08-01T00:19:40;13.82;;;11.35;;
10479;SDS011;12789;42.610;23.040;2022-08-01T00:22:07;13.50;;;10.90;;
10479;SDS011;12789;42.610;23.040;2022-08-01T00:24:34;16.42;;;11.18;;
10479;SDS011;12789;42.610;23.040;2022-08-01T00:27:01;14.05;;;11.38;;
10479;SDS011;12789;42.610;23.040;2022-08-01T00:29:28;17.85;;;11.15;;
10479;SDS011;12789;42.610;23.040;2022-08-01T00:31:55;16.10;;;11.82;;
10479;SDS011;12789;42.610;23.040;2022-08-01T00:34:22;14.65;;;11.20;;
10479;SDS011;12789;42.610;23.040;2022-08-01T00:36:50;17.55;;;11.50;;
10479;SDS011;12789;42.610;23.040;2022-08-01T00:39:17;13.02;;;10.73;;
10479;SDS011;12789;42.610;23.040;2022-08-01T00:41:44;13.13;;;10.63;;
10479;SDS011;12789;42.610;23.040;2022-08-01T00:44:11;13.95;;;10.65;;
10479;SDS011;12789;42.610;23.040;2022-08-01T00:46:38;13.45;;;10.88;;
10479;SDS011;12789;42.610;23.040;2022-08-01T00:49:05;16.73;;;10.85;;
10479;SDS011;12789;42.610;23.040;2022-08-01T00:51:32;13.90;;;10.52;;
10479;SDS011;12789;42.610;23.040;2022-08-01T00:54:00;13.80;;;11.07;;
10479;SDS011;12789;42.610;23.040;2022-08-01T00:56:28;13.40;;;10.65;;
10479;SDS011;12789;42.610;23.040;2022-08-01T00:58:56;11.70;;;10.35;;
10479;SDS011;12789;42.610;23.040;2022-08-01T01:01:23;15.57;;;10.90;;
10479;SDS011;12789;42.610;23.040;2022-08-01T01:03:50;17.17;;;10.13;;
10479;SDS011;12789;42.610;23.040;2022-08-01T01:06:23;18.65;;;10.18;;
10479;SDS011;12789;42.610;23.040;2022-08-01T01:08:55;15.15;;;9.73;;
10479;SDS011;12789;42.610;23.040;2022-08-01T01:11:37;21.60;;;11.05;;
10479;SDS011;12789;42.610;23.040;2022-08-01T01:14:13;16.23;;;11.38;;
10479;SDS011;12789;42.610;23.040;2022-08-01T01:16:54;15.68;;;11.55;;
10479;SDS011;12789;42.610;23.040;2022-08-01T01:19:24;17.88;;;11.55;;
10479;SDS011;12789;42.610;23.040;2022-08-01T01:22:19;18.13;;;11.60;;
10479;SDS011;12789;42.610;23.040;2022-08-01T01:25:10;17.63;;;12.35;;
10479;SDS011;12789;42.610;23.040;2022-08-01T01:27:56;18.55;;;12.10;;
10479;SDS011;12789;42.610;23.040;2022-08-01T01:30:36;17.73;;;11.55;;
10479;SDS011;12789;42.610;23.040;2022-08-01T01:33:06;18.05;;;11.80;;
10479;SDS011;12789;42.610;23.040;2022-08-01T01:35:36;18.27;;;12.02;;
10479;SDS011;12789;42.610;23.040;2022-08-01T01:38:10;14.85;;;11.88;;
10479;SDS011;12789;42.610;23.040;2022-08-01T01:40:42;17.10;;;12.40;;
10479;SDS011;12789;42.610;23.040;2022-08-01T01:43:12;19.63;;;13.18;;
10479;SDS011;12789;42.610;23.040;2022-08-01T01:45:43;14.40;;;11.48;;
10479;SDS011;12789;42.610;23.040;2022-08-01T01:48:12;17.90;;;12.73;;
10479;SDS011;12789;42.610;23.040;2022-08-01T01:50:44;16.60;;;12.30;;
10479;SDS011;12789;42.610;23.040;2022-08-01T01:53:13;20.77;;;11.85;;
10479;SDS011;12789;42.610;23.040;2022-08-01T01:55:44;18.23;;;11.63;;
10479;SDS011;12789;42.610;23.040;2022-08-01T01:58:13;17.40;;;12.15;;
10479;SDS011;12789;42.610;23.040;2022-08-01T02:00:44;16.30;;;12.32;;
10479;SDS011;12789;42.610;23.040;2022-08-01T02:03:13;17.25;;;12.18;;
10479;SDS011;12789;42.610;23.040;2022-08-01T02:05:41;22.08;;;12.60;;
10479;SDS011;12789;42.610;23.040;2022-08-01T02:08:10;20.67;;;12.68;;
10479;SDS011;12789;42.610;23.040;2022-08-01T02:10:40;15.88;;;12.43;;
10479;SDS011;12789;42.610;23.040;2022-08-01T02:13:29;17.13;;;11.75;;
10479;SDS011;12789;42.610;23.040;2022-08-01T02:16:00;20.17;;;11.88;;
10479;SDS011;12789;42.610;23.040;2022-08-01T02:18:27;19.75;;;13.20;;
10479;SDS011;12789;42.610;23.040;2022-08-01T02:20:55;15.77;;;11.98;;
10479;SDS011;12789;42.610;23.040;2022-08-01T02:23:24;18.45;;;11.82;;
10479;SDS011;12789;42.610;23.040;2022-08-01T02:25:58;17.90;;;12.43;;
10479;SDS011;12789;42.610;23.040;2022-08-01T02:28:29;21.45;;;11.50;;
10479;SDS011;12789;42.610;23.040;2022-08-01T02:31:02;18.35;;;11.68;;
10479;SDS011;12789;42.610;23.040;2022-08-01T02:33:33;19.98;;;11.90;;
10479;SDS011;12789;42.610;23.040;2022-08-01T02:36:04;18.45;;;12.05;;
10479;SDS011;12789;42.610;23.040;2022-08-01T02:38:34;17.23;;;11.75;;
10479;SDS011;12789;42.610;23.040;2022-08-01T02:41:05;18.13;;;11.13;;
10479;SDS011;12789;42.610;23.040;2022-08-01T02:43:36;18.80;;;11.05;;
10479;SDS011;12789;42.610;23.040;2022-08-01T02:46:07;17.10;;;10.57;;
10479;SDS011;12789;42.610;23.040;2022-08-01T02:48:39;20.63;;;11.07;;
10479;SDS011;12789;42.610;23.040;2022-08-01T02:51:09;21.13;;;11.90;;
10479;SDS011;12789;42.610;23.040;2022-08-01T02:53:38;14.30;;;10.80;;
10479;SDS011;12789;42.610;23.040;2022-08-01T02:56:07;22.20;;;11.73;;
10479;SDS011;12789;42.610;23.040;2022-08-01T02:58:37;18.38;;;10.80;;
10479;SDS011;12789;42.610;23.040;2022-08-01T03:01:06;16.60;;;11.25;;
10479;SDS011;12789;42.610;23.040;2022-08-01T03:03:36;15.97;;;9.53;;
10479;SDS011;12789;42.610;23.040;2022-08-01T03:06:03;16.73;;;11.02;;
10479;SDS011;12789;42.610;23.040;2022-08-01T03:08:31;20.70;;;10.15;;
10479;SDS011;12789;42.610;23.040;2022-08-01T03:11:01;16.80;;;10.53;;
10479;SDS011;12789;42.610;23.040;2022-08-01T03:13:28;13.17;;;9.90;;
10479;SDS011;12789;42.610;23.040;2022-08-01T03:15:57;15.83;;;10.07;;
10479;SDS011;12789;42.610;23.040;2022-08-01T03:18:27;12.43;;;9.98;;
10479;SDS011;12789;42.610;23.040;2022-08-01T03:20:56;12.23;;;9.40;;
10479;SDS011;12789;42.610;23.040;2022-08-01T03:23:26;19.37;;;10.40;;
10479;SDS011;12789;42.610;23.040;2022-08-01T03:25:55;16.47;;;10.63;;
10479;SDS011;12789;42.610;23.040;2022-08-01T03:28:24;21.47;;;10.73;;
10479;SDS011;12789;42.610;23.040;2022-08-01T03:30:52;20.70;;;11.70;;
10479;SDS011;12789;42.610;23.040;2022-08-01T03:33:20;25.20;;;11.17;;
10479;SDS011;12789;42.610;23.040;2022-08-01T03:35:49;19.47;;;13.00;;
10479;SDS011;12789;42.610;23.040;2022-08-01T03:38:22;24.97;;;13.87;;
10479;SDS011;12789;42.610;23.040;2022-08-01T03:40:52;31.10;;;15.40;;
10479;SDS011;12789;42.610;23.040;2022-08-01T03:43:22;40.63;;;15.77;;
10479;SDS011;12789;42.610;23.040;2022-08-01T03:46:01;30.33;;;14.73;;
10479;SDS011;12789;42.610;23.040;2022-08-01T03:48:32;24.60;;;15.00;;
10479;SDS011;12789;42.610;23.040;2022-08-01T03:51:04;32.42;;;15.98;;
10479;SDS011;12789;42.610;23.040;2022-08-01T03:53:34;26.42;;;15.95;;
10479;SDS011;12789;42.610;23.040;2022-08-01T03:56:03;30.88;;;15.98;;
10479;SDS011;12789;42.610;23.040;2022-08-01T03:58:33;29.75;;;15.60;;
10479;SDS011;12789;42.610;23.040;2022-08-01T04:01:01;28.67;;;16.35;;
10479;SDS011;12789;42.610;23.040;2022-08-01T04:03:29;24.38;;;13.80;;
10479;SDS011;12789;42.610;23.040;2022-08-01T04:05:56;27.27;;;14.98;;
10479;SDS011;12789;42.610;23.040;2022-08-01T04:08:30;29.88;;;14.02;;
10479;SDS011;12789;42.610;23.040;2022-08-01T04:14:11;30.75;;;13.20;;
10479;SDS011;12789;42.610;23.040;2022-08-01T04:16:38;30.60;;;12.10;;
10479;SDS011;12789;42.610;23.040;2022-08-01T04:19:05;31.13;;;12.35;;
10479;SDS011;12789;42.610;23.040;2022-08-01T04:21:34;22.95;;;11.73;;
10479;SDS011;12789;42.610;23.040;2022-08-01T04:24:05;24.42;;;11.30;;
10479;SDS011;12789;42.610;23.040;2022-08-01T04:26:37;28.35;;;10.63;;
10479;SDS011;12789;42.610;23.040;2022-08-01T04:29:06;25.55;;;11.70;;
10479;SDS011;12789;42.610;23.040;2022-08-01T04:31:34;25.60;;;11.45;;
10479;SDS011;12789;42.610;23.040;2022-08-01T04:34:06;24.25;;;11.82;;
10479;SDS011;12789;42.610;23.040;2022-08-01T04:36:34;24.02;;;10.57;;
10479;SDS011;12789;42.610;23.040;2022-08-01T04:39:05;21.90;;;10.52;;
10479;SDS011;12789;42.610;23.040;2022-08-01T04:41:33;17.10;;;9.93;;
10479;SDS011;12789;42.610;23.040;2022-08-01T04:44:02;17.23;;;9.68;;
10479;SDS011;12789;42.610;23.040;2022-08-01T04:46:29;15.07;;;9.77;;
10479;SDS011;12789;42.610;23.040;2022-08-01T04:48:58;19.90;;;10.23;;
10479;SDS011;12789;42.610;23.040;2022-08-01T04:51:26;23.55;;;10.40;;
10479;SDS011;12789;42.610;23.040;2022-08-01T04:53:53;17.58;;;11.05;;
10479;SDS011;12789;42.610;23.040;2022-08-01T04:56:24;23.80;;;11.13;;
10479;SDS011;12789;42.610;23.040;2022-08-01T04:58:51;24.27;;;11.23;;
10479;SDS011;12789;42.610;23.040;2022-08-01T05:01:38;21.25;;;11.15;;
10479;SDS011;12789;42.610;23.040;2022-08-01T05:04:05;15.50;;;8.60;;
10479;SDS011;12789;42.610;23.040;2022-08-01T05:06:32;15.75;;;9.32;;
10479;SDS011;12789;42.610;23.040;2022-08-01T05:08:59;18.17;;;8.50;;
10479;SDS011;12789;42.610;23.040;2022-08-01T05:11:28;15.50;;;8.75;;
10479;SDS011;12789;42.610;23.040;2022-08-01T05:13:55;15.18;;;7.35;;
10479;SDS011;12789;42.610;23.040;2022-08-01T05:16:23;9.45;;;5.50;;
10479;SDS011;12789;42.610;23.040;2022-08-01T05:18:50;7.43;;;5.22;;
10479;SDS011;12789;42.610;23.040;2022-08-01T05:21:17;5.68;;;4.95;;
10479;SDS011;12789;42.610;23.040;2022-08-01T05:23:44;7.35;;;4.78;;
10479;SDS011;12789;42.610;23.040;2022-08-01T05:26:14;7.88;;;4.68;;
10479;SDS011;12789;42.610;23.040;2022-08-01T05:28:42;5.68;;;4.40;;
10479;SDS011;12789;42.610;23.040;2022-08-01T05:31:09;9.60;;;5.45;;
10479;SDS011;12789;42.610;23.040;2022-08-01T05:33:36;13.07;;;4.78;;
10479;SDS011;12789;42.610;23.040;2022-08-01T05:36:04;7.43;;;3.97;;
10479;SDS011;12789;42.610;23.040;2022-08-01T05:38:31;8.40;;;3.75;;
10479;SDS011;12789;42.610;23.040;2022-08-01T05:40:58;60.58;;;7.03;;
10479;SDS011;12789;42.610;23.040;2022-08-01T05:43:25;15.90;;;4.63;;
10479;SDS011;12789;42.610;23.040;2022-08-01T05:45:54;11.75;;;5.65;;
10479;SDS011;12789;42.610;23.040;2022-08-01T05:48:21;16.75;;;6.10;;
10479;SDS011;12789;42.610;23.040;2022-08-01T05:50:49;16.05;;;5.82;;
10479;SDS011;12789;42.610;23.040;2022-08-01T05:53:16;11.63;;;4.88;;
10479;SDS011;12789;42.610;23.040;2022-08-01T05:55:43;12.23;;;5.65;;
10479;SDS011;12789;42.610;23.040;2022-08-01T05:58:10;13.60;;;5.93;;
10479;SDS011;12789;42.610;23.040;2022-08-01T06:00:38;10.93;;;5.63;;
10479;SDS011;12789;42.610;23.040;2022-08-01T06:03:06;14.00;;;5.82;;
10479;SDS011;12789;42.610;23.040;2022-08-01T06:05:33;10.48;;;5.22;;
10479;SDS011;12789;42.610;23.040;2022-08-01T06:08:00;10.40;;;5.57;;
10479;SDS011;12789;42.610;23.040;2022-08-01T06:10:27;11.13;;;5.53;;
10479;SDS011;12789;42.610;23.040;2022-08-01T06:12:53;15.52;;;5.82;;
10479;SDS011;12789;42.610;23.040;2022-08-01T06:15:20;10.45;;;5.50;;
10479;SDS011;12789;42.610;23.040;2022-08-01T06:17:47;9.60;;;5.60;;
10479;SDS011;12789;42.610;23.040;2022-08-01T06:20:15;9.32;;;5.15;;
10479;SDS011;12789;42.610;23.040;2022-08-01T06:22:42;10.15;;;5.80;;
10479;SDS011;12789;42.610;23.040;2022-08-01T06:25:09;9.63;;;5.75;;
10479;SDS011;12789;42.610;23.040;2022-08-01T06:27:36;10.93;;;4.93;;
10479;SDS011;12789;42.610;23.040;2022-08-01T06:30:04;9.32;;;5.03;;
10479;SDS011;12789;42.610;23.040;2022-08-01T06:32:32;9.52;;;4.70;;
10479;SDS011;12789;42.610;23.040;2022-08-01T06:34:59;12.63;;;5.80;;
10479;SDS011;12789;42.610;23.040;2022-08-01T06:37:29;12.07;;;5.40;;
10479;SDS011;12789;42.610;23.040;2022-08-01T06:40:02;10.60;;;4.55;;
10479;SDS011;12789;42.610;23.040;2022-08-01T06:42:34;3.80;;;2.28;;
10479;SDS011;12789;42.610;23.040;2022-08-01T06:45:01;3.50;;;2.90;;
10479;SDS011;12789;42.610;23.040;2022-08-01T06:47:28;4.55;;;2.70;;
10479;SDS011;12789;42.610;23.040;2022-08-01T06:49:55;2.03;;;1.92;;
10479;SDS011;12789;42.610;23.040;2022-08-01T06:52:22;3.33;;;1.80;;
10479;SDS011;12789;42.610;23.040;2022-08-01T06:54:51;5.72;;;2.33;;
10479;SDS011;12789;42.610;23.040;2022-08-01T06:57:18;2.45;;;2.00;;
10479;SDS011;12789;42.610;23.040;2022-08-01T06:59:45;6.40;;;2.10;;
10479;SDS011;12789;42.610;23.040;2022-08-01T07:02:12;2.20;;;2.00;;
10479;SDS011;12789;42.610;23.040;2022-08-01T07:04:39;2.97;;;2.00;;
10479;SDS011;12789;42.610;23.040;2022-08-01T07:07:06;2.25;;;2.05;;
10479;SDS011;12789;42.610;23.040;2022-08-01T07:09:33;1.70;;;1.50;;
10479;SDS011;12789;42.610;23.040;2022-08-01T07:12:01;4.00;;;1.90;;
10479;SDS011;12789;42.610;23.040;2022-08-01T07:14:28;2.45;;;1.65;;
10479;SDS011;12789;42.610;23.040;2022-08-01T07:16:55;2.13;;;1.80;;
10479;SDS011;12789;42.610;23.040;2022-08-01T07:19:22;3.72;;;1.77;;
10479;SDS011;12789;42.610;23.040;2022-08-01T07:21:49;2.05;;;1.88;;
10479;SDS011;12789;42.610;23.040;2022-08-01T07:24:15;3.47;;;1.80;;
10479;SDS011;12789;42.610;23.040;2022-08-01T07:26:43;1.88;;;1.77;;
10479;SDS011;12789;42.610;23.040;2022-08-01T07:29:13;2.55;;;1.70;;
10479;SDS011;12789;42.610;23.040;2022-08-01T07:31:40;1.88;;;1.75;;
10479;SDS011;12789;42.610;23.040;2022-08-01T07:34:08;5.57;;;2.25;;
10479;SDS011;12789;42.610;23.040;2022-08-01T07:36:34;2.15;;;1.95;;
10479;SDS011;12789;42.610;23.040;2022-08-01T07:39:01;3.17;;;1.40;;
10479;SDS011;12789;42.610;23.040;2022-08-01T07:41:28;6.75;;;2.03;;
10479;SDS011;12789;42.610;23.040;2022-08-01T07:43:55;1.85;;;1.63;;
10479;SDS011;12789;42.610;23.040;2022-08-01T07:46:24;2.90;;;1.52;;
10479;SDS011;12789;42.610;23.040;2022-08-01T07:48:51;1.95;;;1.58;;
10479;SDS011;12789;42.610;23.040;2022-08-01T07:51:18;7.45;;;1.90;;
10479;SDS011;12789;42.610;23.040;2022-08-01T07:53:45;1.45;;;1.35;;
10479;SDS011;12789;42.610;23.040;2022-08-01T07:56:13;1.70;;;1.50;;
10479;SDS011;12789;42.610;23.040;2022-08-01T07:58:40;2.47;;;2.13;;
10479;SDS011;12789;42.610;23.040;2022-08-01T08:01:07;1.70;;;1.60;;
10479;SDS011;12789;42.610;23.040;2022-08-01T08:03:36;4.35;;;2.15;;
10479;SDS011;12789;42.610;23.040;2022-08-01T08:06:03;5.35;;;1.85;;
10479;SDS011;12789;42.610;23.040;2022-08-01T08:08:30;2.15;;;1.33;;
10479;SDS011;12789;42.610;23.040;2022-08-01T08:10:59;2.72;;;1.55;;
10479;SDS011;12789;42.610;23.040;2022-08-01T08:13:26;2.55;;;1.40;;
10479;SDS011;12789;42.610;23.040;2022-08-01T08:15:53;1.50;;;1.40;;
10479;SDS011;12789;42.610;23.040;2022-08-01T08:18:21;1.60;;;1.50;;
10479;SDS011;12789;42.610;23.040;2022-08-01T08:20:49;3.45;;;2.00;;
10479;SDS011;12789;42.610;23.040;2022-08-01T08:23:16;2.92;;;1.88;;
10479;SDS011;12789;42.610;23.040;2022-08-01T08:26:01;2.10;;;1.45;;
10479;SDS011;12789;42.610;23.040;2022-08-01T08:28:28;1.85;;;1.42;;
10479;SDS011;12789;42.610;23.040;2022-08-01T08:30:55;1.40;;;1.30;;
10479;SDS011;12789;42.610;23.040;2022-08-01T08:33:23;1.48;;;1.38;;
10479;SDS011;12789;42.610;23.040;2022-08-01T08:35:51;2.55;;;1.60;;
10479;SDS011;12789;42.610;23.040;2022-08-01T08:38:19;2.05;;;1.20;;
10479;SDS011;12789;42.610;23.040;2022-08-01T08:40:46;2.65;;;1.48;;
10479;SDS011;12789;42.610;23.040;2022-08-01T08:43:13;4.15;;;1.30;;
10479;SDS011;12789;42.610;23.040;2022-08-01T08:45:42;1.33;;;1.23;;
10479;SDS011;12789;42.610;23.040;2022-08-01T08:48:11;1.75;;;1.42;;
10479;SDS011;12789;42.610;23.040;2022-08-01T08:50:39;2.20;;;1.42;;
10479;SDS011;12789;42.610;23.040;2022-08-01T08:53:09;1.83;;;1.45;;
10479;SDS011;12789;42.610;23.040;2022-08-01T08:55:36;1.55;;;1.20;;
10479;SDS011;12789;42.610;23.040;2022-08-01T08:58:04;3.50;;;1.60;;
10479;SDS011;12789;42.610;23.040;2022-08-01T09:00:31;2.10;;;1.10;;
10479;SDS011;12789;42.610;23.040;2022-08-01T09:03:01;1.60;;;1.30;;
10479;SDS011;12789;42.610;23.040;2022-08-01T09:05:28;1.70;;;1.33;;
10479;SDS011;12789;42.610;23.040;2022-08-01T09:07:55;1.27;;;1.05;;
10479;SDS011;12789;42.610;23.040;2022-08-01T09:10:25;2.83;;;1.35;;
10479;SDS011;12789;42.610;23.040;2022-08-01T09:13:01;1.55;;;1.35;;
10479;SDS011;12789;42.610;23.040;2022-08-01T09:15:37;5.38;;;1.48;;
10479;SDS011;12789;42.610;23.040;2022-08-01T09:18:05;2.95;;;1.45;;
10479;SDS011;12789;42.610;23.040;2022-08-01T09:20:32;2.65;;;1.85;;
10479;SDS011;12789;42.610;23.040;2022-08-01T09:23:01;1.67;;;1.23;;
10479;SDS011;12789;42.610;23.040;2022-08-01T09:25:30;1.95;;;1.42;;
10479;SDS011;12789;42.610;23.040;2022-08-01T09:28:03;1.38;;;1.27;;
10479;SDS011;12789;42.610;23.040;2022-08-01T09:30:36;1.42;;;1.33;;
10479;SDS011;12789;42.610;23.040;2022-08-01T09:33:05;1.70;;;1.20;;
10479;SDS011;12789;42.610;23.040;2022-08-01T09:35:33;1.40;;;1.30;;
10479;SDS011;12789;42.610;23.040;2022-08-01T09:38:11;2.15;;;1.15;;
10479;SDS011;12789;42.610;23.040;2022-08-01T09:40:51;1.48;;;1.38;;
10479;SDS011;12789;42.610;23.040;2022-08-01T09:43:20;1.23;;;1.23;;
10479;SDS011;12789;42.610;23.040;2022-08-01T09:45:48;3.20;;;1.30;;
10479;SDS011;12789;42.610;23.040;2022-08-01T09:48:15;1.52;;;1.33;;
10479;SDS011;12789;42.610;23.040;2022-08-01T09:50:44;1.17;;;1.08;;
10479;SDS011;12789;42.610;23.040;2022-08-01T09:53:13;1.70;;;1.40;;
10479;SDS011;12789;42.610;23.040;2022-08-01T09:55:41;2.88;;;1.50;;
10479;SDS011;12789;42.610;23.040;2022-08-01T09:58:11;1.38;;;1.35;;
10479;SDS011;12789;42.610;23.040;2022-08-01T10:00:39;3.05;;;1.60;;
10479;SDS011;12789;42.610;23.040;2022-08-01T10:03:19;3.05;;;1.60;;
10479;SDS011;12789;42.610;23.040;2022-08-01T10:05:48;1.80;;;1.70;;
10479;SDS011;12789;42.610;23.040;2022-08-01T10:08:15;2.57;;;1.50;;
10479;SDS011;12789;42.610;23.040;2022-08-01T10:10:43;3.33;;;1.30;;
10479;SDS011;12789;42.610;23.040;2022-08-01T10:13:35;3.17;;;1.45;;
10479;SDS011;12789;42.610;23.040;2022-08-01T10:16:02;1.80;;;1.23;;
10479;SDS011;12789;42.610;23.040;2022-08-01T10:18:33;3.53;;;1.25;;
10479;SDS011;12789;42.610;23.040;2022-08-01T10:21:01;1.08;;;1.08;;
10479;SDS011;12789;42.610;23.040;2022-08-01T10:23:33;2.45;;;1.20;;
10479;SDS011;12789;42.610;23.040;2022-08-01T10:26:01;3.30;;;1.30;;
10479;SDS011;12789;42.610;23.040;2022-08-01T10:28:29;1.83;;;1.50;;
10479;SDS011;12789;42.610;23.040;2022-08-01T10:30:59;1.73;;;1.63;;
10479;SDS011;12789;42.610;23.040;2022-08-01T10:33:27;2.25;;;1.48;;
10479;SDS011;12789;42.610;23.040;2022-08-01T10:35:56;2.75;;;1.58;;
10479;SDS011;12789;42.610;23.040;2022-08-01T10:38:24;3.75;;;1.40;;
10479;SDS011;12789;42.610;23.040;2022-08-01T10:40:54;2.60;;;2.10;;
10479;SDS011;12789;42.610;23.040;2022-08-01T10:43:23;4.85;;;1.63;;
10479;SDS011;12789;42.610;23.040;2022-08-01T10:45:51;1.88;;;1.35;;
10479;SDS011;12789;42.610;23.040;2022-08-01T10:48:20;1.50;;;1.40;;
10479;SDS011;12789;42.610;23.040;2022-08-01T10:50:54;1.80;;;1.42;;
10479;SDS011;12789;42.610;23.040;2022-08-01T10:53:25;6.20;;;1.52;;
10479;SDS011;12789;42.610;23.040;2022-08-01T10:55:57;4.47;;;1.40;;
10479;SDS011;12789;42.610;23.040;2022-08-01T10:58:26;2.97;;;1.60;;
10479;SDS011;12789;42.610;23.040;2022-08-01T11:01:19;1.10;;;1.10;;
10479;SDS011;12789;42.610;23.040;2022-08-01T11:04:01;1.45;;;1.35;;
10479;SDS011;12789;42.610;23.040;2022-08-01T11:06:40;1.63;;;1.23;;
10479;SDS011;12789;42.610;23.040;2022-08-01T11:09:19;1.33;;;1.27;;
10479;SDS011;12789;42.610;23.040;2022-08-01T11:11:57;1.25;;;1.00;;
10479;SDS011;12789;42.610;23.040;2022-08-01T11:14:25;1.55;;;1.45;;
10479;SDS011;12789;42.610;23.040;2022-08-01T11:16:52;7.00;;;2.28;;
10479;SDS011;12789;42.610;23.040;2022-08-01T11:19:22;3.78;;;1.50;;
10479;SDS011;12789;42.610;23.040;2022-08-01T11:21:59;1.27;;;1.17;;
10479;SDS011;12789;42.610;23.040;2022-08-01T11:27:24;5.25;;;1.65;;
10479;SDS011;12789;42.610;23.040;2022-08-01T11:32:48;4.53;;;1.42;;
10479;SDS011;12789;42.610;23.040;2022-08-01T11:35:18;1.88;;;1.77;;
10479;SDS011;12789;42.610;23.040;2022-08-01T11:37:48;1.40;;;1.30;;
10479;SDS011;12789;42.610;23.040;2022-08-01T11:40:18;5.00;;;1.92;;
10479;SDS011;12789;42.610;23.040;2022-08-01T11:42:47;1.70;;;1.60;;
10479;SDS011;12789;42.610;23.040;2022-08-01T11:45:14;2.50;;;1.70;;
10479;SDS011;12789;42.610;23.040;2022-08-01T11:47:45;2.67;;;1.58;;
10479;SDS011;12789;42.610;23.040;2022-08-01T11:53:09;1.58;;;1.48;;
10479;SDS011;12789;42.610;23.040;2022-08-01T11:55:43;1.48;;;1.38;;
10479;SDS011;12789;42.610;23.040;2022-08-01T11:58:13;1.80;;;1.33;;
10479;SDS011;12789;42.610;23.040;2022-08-01T12:00:40;1.60;;;1.50;;
10479;SDS011;12789;42.610;23.040;2022-08-01T12:03:08;1.80;;;1.35;;
10479;SDS011;12789;42.610;23.040;2022-08-01T12:05:35;1.52;;;1.42;;
10479;SDS011;12789;42.610;23.040;2022-08-01T12:08:04;1.55;;;1.45;;
10479;SDS011;12789;42.610;23.040;2022-08-01T12:10:34;3.33;;;1.42;;
10479;SDS011;12789;42.610;23.040;2022-08-01T12:13:03;3.13;;;1.33;;
10479;SDS011;12789;42.610;23.040;2022-08-01T12:15:32;1.60;;;1.50;;
10479;SDS011;12789;42.610;23.040;2022-08-01T12:18:01;1.70;;;1.40;;
10479;SDS011;12789;42.610;23.040;2022-08-01T12:20:30;1.20;;;1.20;;
10479;SDS011;12789;42.610;23.040;2022-08-01T12:22:59;3.38;;;1.50;;
10479;SDS011;12789;42.610;23.040;2022-08-01T12:25:28;1.40;;;1.30;;
10479;SDS011;12789;42.610;23.040;2022-08-01T12:27:59;1.40;;;1.30;;
10479;SDS011;12789;42.610;23.040;2022-08-01T12:30:27;2.60;;;1.70;;
10479;SDS011;12789;42.610;23.040;2022-08-01T12:33:00;1.73;;;1.38;;
10479;SDS011;12789;42.610;23.040;2022-08-01T12:35:29;1.38;;;1.30;;
10479;SDS011;12789;42.610;23.040;2022-08-01T12:37:57;1.60;;;1.50;;
10479;SDS011;12789;42.610;23.040;2022-08-01T12:40:26;1.23;;;1.10;;
10479;SDS011;12789;42.610;23.040;2022-08-01T12:42:56;4.00;;;1.65;;
10479;SDS011;12789;42.610;23.040;2022-08-01T12:45:25;1.30;;;1.25;;
10479;SDS011;12789;42.610;23.040;2022-08-01T12:47:55;1.45;;;1.33;;
10479;SDS011;12789;42.610;23.040;2022-08-01T12:50:25;1.08;;;0.98;;
10479;SDS011;12789;42.610;23.040;2022-08-01T12:52:54;1.35;;;1.25;;
10479;SDS011;12789;42.610;23.040;2022-08-01T12:55:24;1.35;;;1.23;;
10479;SDS011;12789;42.610;23.040;2022-08-01T12:58:03;3.30;;;1.20;;
10479;SDS011;12789;42.610;23.040;2022-08-01T13:00:32;2.73;;;1.37;;
10479;SDS011;12789;42.610;23.040;2022-08-01T13:03:01;3.40;;;1.10;;
10479;SDS011;12789;42.610;23.040;2022-08-01T13:05:40;1.70;;;1.60;;
10479;SDS011;12789;42.610;23.040;2022-08-01T13:08:09;2.15;;;1.10;;
10479;SDS011;12789;42.610;23.040;2022-08-01T13:10:37;2.15;;;1.55;;
10479;SDS011;12789;42.610;23.040;2022-08-01T13:13:06;1.00;;;1.00;;
10479;SDS011;12789;42.610;23.040;2022-08-01T13:15:36;3.13;;;1.33;;
10479;SDS011;12789;42.610;23.040;2022-08-01T13:20:50;1.25;;;1.15;;
10479;SDS011;12789;42.610;23.040;2022-08-01T13:23:36;2.05;;;1.63;;
10479;SDS011;12789;42.610;23.040;2022-08-01T13:26:03;1.10;;;1.10;;
10479;SDS011;12789;42.610;23.040;2022-08-01T13:28:32;2.80;;;1.20;;
10479;SDS011;12789;42.610;23.040;2022-08-01T13:31:02;2.28;;;1.48;;
10479;SDS011;12789;42.610;23.040;2022-08-01T13:33:39;2.10;;;1.08;;
10479;SDS011;12789;42.610;23.040;2022-08-01T13:36:08;1.15;;;1.15;;
10479;SDS011;12789;42.610;23.040;2022-08-01T13:38:35;0.85;;;0.85;;
10479;SDS011;12789;42.610;23.040;2022-08-01T13:41:20;1.00;;;1.00;;
10479;SDS011;12789;42.610;23.040;2022-08-01T13:43:50;1.00;;;1.00;;
10479;SDS011;12789;42.610;23.040;2022-08-01T13:46:17;4.00;;;1.20;;
10479;SDS011;12789;42.610;23.040;2022-08-01T13:48:44;1.15;;;1.05;;
10479;SDS011;12789;42.610;23.040;2022-08-01T13:51:11;1.10;;;1.00;;
10479;SDS011;12789;42.610;23.040;2022-08-01T13:53:39;0.95;;;0.95;;
10479;SDS011;12789;42.610;23.040;2022-08-01T13:56:05;1.48;;;1.10;;
10479;SDS011;12789;42.610;23.040;2022-08-01T13:58:32;0.88;;;0.88;;
10479;SDS011;12789;42.610;23.040;2022-08-01T14:01:01;0.80;;;0.75;;
10479;SDS011;12789;42.610;23.040;2022-08-01T14:03:28;1.05;;;0.80;;
10479;SDS011;12789;42.610;23.040;2022-08-01T14:05:56;1.10;;;1.00;;
10479;SDS011;12789;42.610;23.040;2022-08-01T14:08:23;1.58;;;1.00;;
10479;SDS011;12789;42.610;23.040;2022-08-01T14:10:51;1.20;;;1.10;;
10479;SDS011;12789;42.610;23.040;2022-08-01T14:13:21;3.67;;;1.20;;
10479;SDS011;12789;42.610;23.040;2022-08-01T14:15:48;2.05;;;1.20;;
10479;SDS011;12789;42.610;23.040;2022-08-01T14:18:17;1.48;;;0.93;;
10479;SDS011;12789;42.610;23.040;2022-08-01T14:20:45;1.20;;;1.10;;
10479;SDS011;12789;42.610;23.040;2022-08-01T14:23:13;2.25;;;0.90;;
10479;SDS011;12789;42.610;23.040;2022-08-01T14:25:40;2.33;;;1.20;;
10479;SDS011;12789;42.610;23.040;2022-08-01T14:28:09;1.25;;;1.02;;
10479;SDS011;12789;42.610;23.040;2022-08-01T14:30:37;2.40;;;1.05;;
10479;SDS011;12789;42.610;23.040;2022-08-01T14:33:06;1.05;;;0.90;;
10479;SDS011;12789;42.610;23.040;2022-08-01T14:35:35;1.40;;;1.05;;
10479;SDS011;12789;42.610;23.040;2022-08-01T14:38:02;1.00;;;1.00;;
10479;SDS011;12789;42.610;23.040;2022-08-01T14:40:29;0.60;;;0.60;;
10479;SDS011;12789;42.610;23.040;2022-08-01T14:42:57;2.20;;;0.90;;
10479;SDS011;12789;42.610;23.040;2022-08-01T14:45:26;1.73;;;1.05;;
10479;SDS011;12789;42.610;23.040;2022-08-01T14:47:54;0.75;;;0.75;;
10479;SDS011;12789;42.610;23.040;2022-08-01T14:50:21;2.17;;;1.00;;
10479;SDS011;12789;42.610;23.040;2022-08-01T14:52:50;0.90;;;0.90;;
10479;SDS011;12789;42.610;23.040;2022-08-01T14:55:17;0.77;;;0.77;;